createdAt,value
2018-03-16T00:02:19.924Z,80.03
2018-03-16T00:04:47.556Z,80.24
2018-03-16T00:07:16.206Z,80.75
2018-03-16T00:09:43.843Z,80.59
2018-03-16T00:12:11.548Z,81.10
2018-03-16T00:14:39.276Z,81.00
2018-03-16T00:17:06.982Z,80.61
2018-03-16T00:19:34.569Z,81.12
2018-03-16T00:22:02.198Z,80.85
2018-03-16T00:24:29.869Z,80.80
2018-03-16T00:26:57.593Z,81.01
2018-03-16T00:29:25.205Z,80.82
2018-03-16T00:31:52.811Z,80.42
2018-03-16T00:34:20.509Z,79.79
2018-03-16T00:36:48.123Z,79.14
2018-03-16T00:39:15.763Z,79.55
2018-03-16T00:41:43.384Z,80.03
2018-03-16T00:44:11.040Z,79.93
2018-03-16T00:46:38.657Z,80.16
2018-03-16T00:49:07.050Z,80.65
2018-03-16T00:51:34.681Z,81.47
2018-03-16T00:54:02.301Z,81.50
2018-03-16T00:56:29.921Z,81.34
2018-03-16T00:58:57.558Z,83.05
2018-03-16T01:01:25.156Z,83.28
2018-03-16T01:03:52.773Z,82.95
2018-03-16T01:06:20.351Z,83.20
2018-03-16T01:08:48.010Z,83.59
2018-03-16T01:11:15.611Z,83.53
2018-03-16T01:13:43.190Z,82.99
2018-03-16T01:16:10.908Z,83.33
2018-03-16T01:18:38.486Z,84.12
2018-03-16T01:21:06.106Z,82.67
2018-03-16T01:23:33.769Z,84.15
2018-03-16T01:26:01.546Z,84.06
2018-03-16T01:28:29.197Z,84.09
2018-03-16T01:30:56.856Z,84.87
2018-03-16T01:33:24.511Z,84.52
2018-03-16T01:35:52.117Z,84.47
2018-03-16T01:38:19.770Z,83.98
2018-03-16T01:40:47.426Z,83.77
2018-03-16T01:43:15.011Z,84.79
2018-03-16T01:45:42.656Z,84.32
2018-03-16T01:48:10.241Z,83.86
2018-03-16T01:50:37.930Z,83.68
2018-03-16T01:53:17.606Z,83.60
2018-03-16T01:55:45.281Z,83.78
2018-03-16T01:58:12.912Z,83.75
2018-03-16T02:00:40.661Z,84.17
2018-03-16T02:03:08.322Z,85.20
2018-03-16T02:05:35.963Z,84.61
2018-03-16T02:08:03.669Z,84.69
2018-03-16T02:10:31.310Z,84.83
2018-03-16T02:12:59.659Z,84.36
2018-03-16T02:15:27.365Z,84.13
2018-03-16T02:17:55.685Z,84.78
2018-03-16T02:20:23.496Z,85.60
2018-03-16T02:22:51.346Z,85.15
2018-03-16T02:25:19.040Z,84.88
2018-03-16T02:27:46.685Z,84.83
2018-03-16T02:30:14.335Z,84.71
2018-03-16T02:32:42.030Z,84.99
2018-03-16T02:35:09.646Z,85.07
2018-03-16T02:37:37.275Z,85.49
2018-03-16T02:40:04.876Z,86.07
2018-03-16T02:42:33.325Z,86.13
2018-03-16T02:45:01.730Z,86.08
2018-03-16T02:47:30.030Z,85.74
2018-03-16T02:49:57.732Z,85.97
2018-03-16T02:52:26.386Z,86.05
2018-03-16T02:54:54.047Z,86.68
2018-03-16T02:57:21.703Z,87.05
2018-03-16T02:59:49.332Z,87.25
2018-03-16T03:02:17.663Z,87.13
2018-03-16T03:04:45.326Z,87.64
2018-03-16T03:07:12.975Z,87.61
2018-03-16T03:09:40.829Z,88.27
2018-03-16T03:12:08.453Z,88.77
2018-03-16T03:14:36.075Z,88.49
2018-03-16T03:17:03.699Z,88.07
2018-03-16T03:19:31.335Z,88.21
2018-03-16T03:21:58.957Z,88.60
2018-03-16T03:24:26.590Z,88.02
2018-03-16T03:26:54.809Z,88.13
2018-03-16T03:29:22.458Z,88.72
2018-03-16T03:31:50.066Z,88.94
2018-03-16T03:34:18.333Z,88.76
2018-03-16T03:36:46.017Z,90.06
2018-03-16T03:39:13.839Z,89.25
2018-03-16T03:41:41.418Z,89.08
2018-03-16T03:44:09.145Z,89.29
2018-03-16T03:46:36.864Z,88.89
2018-03-16T03:49:04.575Z,89.01
2018-03-16T03:51:32.455Z,89.79
2018-03-16T03:54:00.316Z,90.21
2018-03-16T03:56:28.156Z,90.04
2018-03-16T03:58:55.779Z,89.52
2018-03-16T04:01:24.094Z,89.14
2018-03-16T04:03:51.780Z,89.74
2018-03-16T04:06:20.062Z,89.53
2018-03-16T04:08:47.820Z,89.69
2018-03-16T04:11:15.534Z,89.69
2018-03-16T04:13:43.122Z,89.41
2018-03-16T04:16:11.598Z,89.54
2018-03-16T04:18:39.222Z,89.38
2018-03-16T04:21:06.874Z,89.60
2018-03-16T04:23:34.462Z,89.44
2018-03-16T04:26:02.147Z,89.61
2018-03-16T04:28:29.752Z,89.62
2018-03-16T04:30:58.008Z,89.99
2018-03-16T04:33:25.787Z,89.79
2018-03-16T04:35:53.841Z,90.00
2018-03-16T04:38:21.493Z,90.36
2018-03-16T04:40:49.139Z,90.39
2018-03-16T04:43:16.735Z,90.31
2018-03-16T04:45:44.481Z,90.22
2018-03-16T04:48:12.720Z,90.63
2018-03-16T04:50:40.894Z,90.79
2018-03-16T04:53:08.548Z,91.67
2018-03-16T04:55:36.169Z,91.95
2018-03-16T04:58:04.017Z,91.90
2018-03-16T05:00:32.805Z,91.88
2018-03-16T05:03:00.648Z,91.26
2018-03-16T05:05:28.308Z,91.30
2018-03-16T05:07:56.117Z,91.10
2018-03-16T05:10:23.817Z,91.35
2018-03-16T05:12:51.485Z,90.99
2018-03-16T05:15:19.139Z,91.21
2018-03-16T05:17:46.854Z,91.35
2018-03-16T05:20:14.530Z,91.45
2018-03-16T05:22:42.590Z,91.74
2018-03-16T05:25:10.228Z,91.76
2018-03-16T05:27:37.915Z,91.51
2018-03-16T05:30:06.539Z,91.18
2018-03-16T05:32:34.258Z,91.20
2018-03-16T05:35:02.549Z,91.49
2018-03-16T05:37:30.723Z,92.28
2018-03-16T05:39:58.482Z,92.42
2018-03-16T05:42:26.156Z,92.36
2018-03-16T05:44:54.032Z,92.88
2018-03-16T05:47:21.708Z,92.27
2018-03-16T05:49:49.596Z,93.46
2018-03-16T05:52:18.027Z,93.79
2018-03-16T05:54:45.674Z,93.17
2018-03-16T05:57:13.328Z,91.65
2018-03-16T05:59:41.006Z,90.78
2018-03-16T06:02:09.466Z,90.70
2018-03-16T06:04:37.067Z,90.80
2018-03-16T06:07:04.819Z,91.74
2018-03-16T06:09:33.024Z,91.61
2018-03-16T06:12:00.718Z,91.51
2018-03-16T06:14:28.421Z,91.51
2018-03-16T06:16:56.118Z,91.90
2018-03-16T06:19:23.757Z,93.06
2018-03-16T06:21:51.404Z,93.74
2018-03-16T06:24:19.003Z,92.87
2018-03-16T06:26:46.715Z,92.87
2018-03-16T06:29:14.315Z,92.84
2018-03-16T06:31:41.925Z,92.49
2018-03-16T06:34:09.586Z,92.55
2018-03-16T06:36:37.246Z,92.40
2018-03-16T06:39:04.912Z,92.25
2018-03-16T06:41:32.545Z,91.84
2018-03-16T06:44:00.196Z,92.65
2018-03-16T06:46:27.833Z,93.43
2018-03-16T06:48:55.431Z,93.32
2018-03-16T06:51:23.093Z,94.03
2018-03-16T06:53:50.720Z,94.23
2018-03-16T06:56:19.034Z,93.53
2018-03-16T06:58:46.706Z,92.87
2018-03-16T07:01:14.376Z,92.94
2018-03-16T07:03:42.077Z,92.78
2018-03-16T07:06:09.838Z,92.49
2018-03-16T07:08:37.548Z,93.03
2018-03-16T07:11:05.275Z,93.01
2018-03-16T07:13:32.983Z,92.69
2018-03-16T07:16:00.662Z,93.02
2018-03-16T07:18:28.318Z,93.65
2018-03-16T07:20:56.042Z,93.65
2018-03-16T07:23:24.670Z,93.27
2018-03-16T07:25:52.312Z,92.89
2018-03-16T07:28:19.901Z,92.56
2018-03-16T07:30:47.649Z,92.56
2018-03-16T07:33:15.290Z,92.17
2018-03-16T07:35:42.962Z,92.44
2018-03-16T07:38:10.610Z,92.48
2018-03-16T07:40:38.648Z,92.31
2018-03-16T07:43:06.270Z,92.40
2018-03-16T07:45:39.524Z,92.11
2018-03-16T07:48:07.842Z,92.61
2018-03-16T07:50:35.786Z,92.82
2018-03-16T07:53:03.468Z,92.81
2018-03-16T07:55:31.173Z,92.37
2018-03-16T07:57:58.772Z,92.49
2018-03-16T08:00:26.393Z,92.51
2018-03-16T08:02:54.033Z,92.54
2018-03-16T08:05:21.747Z,92.61
2018-03-16T08:07:49.396Z,91.85
2018-03-16T08:10:17.042Z,91.48
2018-03-16T08:12:44.959Z,91.26
2018-03-16T08:15:12.602Z,91.50
2018-03-16T08:17:40.316Z,91.96
2018-03-16T08:20:08.061Z,93.17
2018-03-16T08:22:35.708Z,94.01
2018-03-16T08:25:03.345Z,94.14
2018-03-16T08:27:30.989Z,94.21
2018-03-16T08:29:58.623Z,95.05
2018-03-16T08:32:26.295Z,94.98
2018-03-16T08:34:53.950Z,94.36
2018-03-16T08:37:21.583Z,94.32
2018-03-16T08:39:49.185Z,93.50
2018-03-16T08:42:16.895Z,93.36
2018-03-16T08:44:45.133Z,93.33
2018-03-16T08:47:12.816Z,93.00
2018-03-16T08:49:40.502Z,92.72
2018-03-16T08:52:08.172Z,92.57
2018-03-16T08:54:35.810Z,93.52
2018-03-16T08:57:03.503Z,93.21
2018-03-16T08:59:31.169Z,91.92
2018-03-16T09:01:58.884Z,91.18
2018-03-16T09:04:26.502Z,91.30
2018-03-16T09:06:54.228Z,91.97
2018-03-16T09:09:21.887Z,91.26
2018-03-16T09:11:49.803Z,91.25
2018-03-16T09:14:17.488Z,90.74
2018-03-16T09:16:45.089Z,89.86
2018-03-16T09:19:12.751Z,89.98
2018-03-16T09:21:40.334Z,90.09
2018-03-16T09:24:07.996Z,90.15
2018-03-16T09:26:35.668Z,89.62
2018-03-16T09:29:03.355Z,89.35
2018-03-16T09:31:30.959Z,89.23
2018-03-16T09:33:58.627Z,88.44
2018-03-16T09:36:26.678Z,90.27
2018-03-16T09:38:54.515Z,89.35
2018-03-16T09:41:22.196Z,87.10
2018-03-16T09:43:49.855Z,86.46
2018-03-16T09:46:17.581Z,86.54
2018-03-16T09:48:45.280Z,87.20
2018-03-16T09:51:12.932Z,86.75
2018-03-16T09:53:40.608Z,86.68
2018-03-16T09:56:08.288Z,86.34
2018-03-16T09:58:35.963Z,86.43
2018-03-16T10:01:03.589Z,85.86
2018-03-16T10:03:31.223Z,87.70
2018-03-16T10:05:58.914Z,86.53
2018-03-16T10:08:26.555Z,88.63
2018-03-16T10:10:54.242Z,88.02
2018-03-16T10:13:21.911Z,88.50
2018-03-16T10:15:49.555Z,87.54
2018-03-16T10:18:17.225Z,86.47
2018-03-16T10:20:44.867Z,86.93
2018-03-16T10:23:12.474Z,88.30
2018-03-16T10:25:40.399Z,87.44
2018-03-16T10:28:08.118Z,88.46
2018-03-16T10:30:35.749Z,88.68
2018-03-16T10:33:03.405Z,88.37
2018-03-16T10:35:31.050Z,89.94
2018-03-16T10:37:58.673Z,88.65
2018-03-16T10:40:26.405Z,89.00
2018-03-16T10:42:54.131Z,88.69
2018-03-16T10:45:21.777Z,88.11
2018-03-16T10:47:50.938Z,89.52
2018-03-16T10:50:18.521Z,87.83
2018-03-16T10:52:46.183Z,89.58
2018-03-16T10:55:13.813Z,88.61
2018-03-16T10:57:41.485Z,86.69
2018-03-16T11:00:09.174Z,85.85
2018-03-16T11:02:42.238Z,86.37
2018-03-16T11:05:15.352Z,84.72
2018-03-16T11:07:43.063Z,85.46
2018-03-16T11:10:10.684Z,85.19
2018-03-16T11:12:38.895Z,86.65
2018-03-16T11:15:06.595Z,86.49
2018-03-16T11:17:34.213Z,85.64
2018-03-16T11:20:01.880Z,85.15
2018-03-16T11:22:29.530Z,85.19
2018-03-16T11:24:57.205Z,85.24
2018-03-16T11:27:24.846Z,85.02
2018-03-16T11:29:52.511Z,84.34
2018-03-16T11:32:20.183Z,85.33
2018-03-16T11:34:47.914Z,85.38
2018-03-16T11:37:15.739Z,85.22
2018-03-16T11:39:43.422Z,86.22
2018-03-16T11:42:11.149Z,85.88
2018-03-16T11:44:38.796Z,84.39
2018-03-16T11:47:06.446Z,82.33
2018-03-16T11:49:34.134Z,82.43
2018-03-16T11:52:01.842Z,81.51
2018-03-16T11:54:30.073Z,81.41
2018-03-16T11:56:57.722Z,80.89
2018-03-16T11:59:25.321Z,81.72
2018-03-16T12:01:53.019Z,81.43
2018-03-16T12:04:20.678Z,81.06
2018-03-16T12:06:48.357Z,79.28
2018-03-16T12:09:15.962Z,79.79
2018-03-16T12:11:43.620Z,79.92
2018-03-16T12:14:11.276Z,79.67
2018-03-16T12:16:38.864Z,78.38
2018-03-16T12:19:06.582Z,81.85
2018-03-16T12:21:34.249Z,79.13
2018-03-16T12:24:01.924Z,81.10
2018-03-16T12:26:29.601Z,81.17
2018-03-16T12:28:57.216Z,81.89
2018-03-16T12:31:24.915Z,81.34
2018-03-16T12:33:52.716Z,81.31
2018-03-16T12:36:20.585Z,79.86
2018-03-16T12:38:48.231Z,79.36
2018-03-16T12:41:15.894Z,80.54
2018-03-16T12:43:43.585Z,79.03
2018-03-16T12:46:11.479Z,78.51
2018-03-16T12:48:39.202Z,76.95
2018-03-16T12:51:06.869Z,77.03
2018-03-16T12:53:34.533Z,74.73
2018-03-16T12:56:02.173Z,76.73
2018-03-16T12:58:29.841Z,71.10
2018-03-16T13:00:57.481Z,70.24
2018-03-16T13:03:25.156Z,69.85
2018-03-16T13:05:52.866Z,66.43
2018-03-16T13:08:20.462Z,69.30
2018-03-16T13:10:48.132Z,69.85
2018-03-16T13:13:15.761Z,67.25
2018-03-16T13:15:43.367Z,69.30
2018-03-16T13:18:11.133Z,71.10
2018-03-16T13:20:38.771Z,73.46
2018-03-16T13:23:06.454Z,65.58
2018-03-16T13:25:34.113Z,61.70
2018-03-16T13:28:01.774Z,59.04
2018-03-16T13:30:29.443Z,60.64
2018-03-16T13:32:57.087Z,58.20
2018-03-16T13:35:24.808Z,57.43
2018-03-16T13:37:52.419Z,59.09
2018-03-16T13:40:20.160Z,63.45
2018-03-16T13:42:47.822Z,66.54
2018-03-16T13:45:15.474Z,68.65
2018-03-16T13:47:43.062Z,61.53
2018-03-16T13:50:10.802Z,59.85
2018-03-16T13:52:38.472Z,59.39
2018-03-16T13:55:06.075Z,60.97
2018-03-16T13:57:33.765Z,59.26
2018-03-16T14:00:01.474Z,58.71
2018-03-16T14:02:29.347Z,58.39
2018-03-16T14:04:57.054Z,59.95
2018-03-16T14:07:24.676Z,60.99
2018-03-16T14:09:52.407Z,60.93
2018-03-16T14:12:20.350Z,61.21
2018-03-16T14:14:50.204Z,61.30
2018-03-16T14:17:18.175Z,60.63
2018-03-16T14:19:45.824Z,61.63
2018-03-16T14:22:14.204Z,63.29
2018-03-16T14:24:42.205Z,60.25
2018-03-16T14:27:09.955Z,57.59
2018-03-16T14:29:37.990Z,55.92
2018-03-16T14:32:05.894Z,56.09
2018-03-16T14:34:33.763Z,56.37
2018-03-16T14:37:01.818Z,55.72
2018-03-16T14:39:29.700Z,55.95
2018-03-16T14:41:57.379Z,57.70
2018-03-16T14:44:25.235Z,60.70
2018-03-16T14:46:53.389Z,57.41
2018-03-16T14:49:21.369Z,58.15
2018-03-16T14:51:49.367Z,58.76
2018-03-16T14:54:17.411Z,58.73
2018-03-16T14:56:45.025Z,59.08
2018-03-16T14:59:12.668Z,57.91
2018-03-16T15:01:40.597Z,60.05
2018-03-16T15:04:08.254Z,58.89
2018-03-16T15:06:35.958Z,61.52
2018-03-16T15:09:03.796Z,63.62
2018-03-16T15:11:31.664Z,66.64
2018-03-16T15:13:59.640Z,62.68
2018-03-16T15:16:27.290Z,58.02
2018-03-16T15:18:55.056Z,56.81
2018-03-16T15:21:22.798Z,56.53
2018-03-16T15:23:51.203Z,60.02
2018-03-16T15:26:19.337Z,63.42
2018-03-16T15:28:47.139Z,63.13
2018-03-16T15:31:14.768Z,66.03
2018-03-16T15:33:43.055Z,65.23
2018-03-16T15:36:11.139Z,66.98
2018-03-16T15:38:38.917Z,66.07
2018-03-16T15:41:06.682Z,68.27
2018-03-16T15:43:34.728Z,69.20
2018-03-16T15:46:02.615Z,69.41
2018-03-16T15:48:31.115Z,70.61
2018-03-16T15:50:58.931Z,73.01
2018-03-16T15:53:26.731Z,72.00
2018-03-16T15:55:55.104Z,71.43
2018-03-16T15:58:22.802Z,72.35
2018-03-16T16:00:51.281Z,73.74
2018-03-16T16:03:18.969Z,73.44
2018-03-16T16:05:47.893Z,73.83
2018-03-16T16:08:15.982Z,74.33
2018-03-16T16:10:43.850Z,75.22
2018-03-16T16:13:11.497Z,75.32
2018-03-16T16:15:39.993Z,75.63
2018-03-16T16:18:07.663Z,75.30
2018-03-16T16:20:36.501Z,75.27
2018-03-16T16:23:04.319Z,73.49
2018-03-16T16:25:32.184Z,73.47
2018-03-16T16:27:59.970Z,76.22
2018-03-16T16:30:28.008Z,75.96
2018-03-16T16:32:55.898Z,75.68
2018-03-16T16:35:23.555Z,75.82
2018-03-16T16:37:51.375Z,76.10
2018-03-16T16:40:19.478Z,76.66
2018-03-16T16:42:47.362Z,77.11
2018-03-16T16:45:15.880Z,73.12
2018-03-16T16:47:43.613Z,73.69
2018-03-16T16:50:12.422Z,75.82
2018-03-16T16:52:40.155Z,76.96
2018-03-16T16:55:08.508Z,76.22
2018-03-16T16:57:36.505Z,75.22
2018-03-16T17:00:04.731Z,76.21
2018-03-16T17:02:32.828Z,73.07
2018-03-16T17:05:00.501Z,71.04
2018-03-16T17:07:28.380Z,71.12
2018-03-16T17:09:56.358Z,70.86
2018-03-16T17:12:24.311Z,69.70
2018-03-16T17:14:51.913Z,73.70
2018-03-16T17:17:19.539Z,75.41
2018-03-16T17:19:47.273Z,76.92
2018-03-16T17:22:14.968Z,77.52
2018-03-16T17:24:42.937Z,77.04
2018-03-16T17:27:10.544Z,76.50
2018-03-16T17:29:38.253Z,77.76
2018-03-16T17:32:06.234Z,78.78
2018-03-16T17:34:33.980Z,78.73
2018-03-16T17:37:01.761Z,79.68
2018-03-16T17:39:30.003Z,79.66
2018-03-16T17:41:57.788Z,80.76
2018-03-16T17:44:25.893Z,81.34
2018-03-16T17:46:53.943Z,81.61
2018-03-16T17:49:21.816Z,81.69
2018-03-16T17:51:49.459Z,81.50
2018-03-16T17:54:17.226Z,81.74
2018-03-16T17:56:45.208Z,81.91
2018-03-16T17:59:13.898Z,81.63
2018-03-16T18:01:41.814Z,81.36
2018-03-16T18:04:09.648Z,81.48
2018-03-16T18:06:37.357Z,81.89
2018-03-16T18:09:05.100Z,82.70
2018-03-16T18:11:32.818Z,82.29
2018-03-16T18:14:00.558Z,83.22
2018-03-16T18:16:28.181Z,84.81
2018-03-16T18:18:55.912Z,84.82
2018-03-16T18:21:23.590Z,85.49
2018-03-16T18:23:51.326Z,84.92
2018-03-16T18:26:19.010Z,85.48
2018-03-16T18:28:46.782Z,85.43
2018-03-16T18:31:15.017Z,85.53
2018-03-16T18:33:42.698Z,85.85
2018-03-16T18:36:10.424Z,85.54
2018-03-16T18:38:38.843Z,85.78
2018-03-16T18:41:07.289Z,85.31
2018-03-16T18:43:35.410Z,85.26
2018-03-16T18:46:03.383Z,85.64
2018-03-16T18:48:31.494Z,86.18
2018-03-16T18:51:00.431Z,87.01
2018-03-16T18:53:28.650Z,86.58
2018-03-16T18:55:56.674Z,86.33
2018-03-16T18:58:24.609Z,86.12
2018-03-16T19:00:53.433Z,86.36
2018-03-16T19:03:22.937Z,85.29
2018-03-16T19:05:50.588Z,85.51
2018-03-16T19:08:18.322Z,85.66
2018-03-16T19:10:46.456Z,85.67
2018-03-16T19:13:14.823Z,85.18
2018-03-16T19:15:42.576Z,84.94
2018-03-16T19:18:10.614Z,85.11
2018-03-16T19:20:38.413Z,85.58
2018-03-16T19:23:06.454Z,85.87
2018-03-16T19:25:34.323Z,86.60
2018-03-16T19:28:02.426Z,86.47
2018-03-16T19:30:31.718Z,86.06
2018-03-16T19:32:59.480Z,86.40
2018-03-16T19:35:27.258Z,86.64
2018-03-16T19:37:55.936Z,86.62
2018-03-16T19:40:24.971Z,86.50
2018-03-16T19:42:53.216Z,86.14
2018-03-16T19:45:21.105Z,86.91
2018-03-16T19:47:48.887Z,86.82
2018-03-16T19:50:16.720Z,86.35
2018-03-16T19:52:44.391Z,86.47
2018-03-16T19:55:12.399Z,86.92
2018-03-16T19:57:40.599Z,87.08
2018-03-16T20:00:08.785Z,86.92
2018-03-16T20:02:37.611Z,86.83
2018-03-16T20:05:05.802Z,86.73
2018-03-16T20:07:33.893Z,87.05
2018-03-16T20:10:02.187Z,87.34
2018-03-16T20:12:30.161Z,87.90
2018-03-16T20:14:58.253Z,87.07
2018-03-16T20:17:26.283Z,87.12
2018-03-16T20:19:54.351Z,87.02
2018-03-16T20:22:22.419Z,86.86
2018-03-16T20:24:50.410Z,87.38
2018-03-16T20:27:18.402Z,87.25
2018-03-16T20:29:46.261Z,87.23
2018-03-16T20:32:14.486Z,86.72
2018-03-16T20:34:42.780Z,86.88
2018-03-16T20:37:11.217Z,86.74
2018-03-16T20:39:38.986Z,87.24
2018-03-16T20:42:08.580Z,87.59
2018-03-16T20:44:36.235Z,87.74
2018-03-16T20:47:04.218Z,87.68
2018-03-16T20:49:32.964Z,87.57
2018-03-16T20:52:00.838Z,88.02
2018-03-16T20:54:28.931Z,88.51
2018-03-16T20:56:56.700Z,88.77
2018-03-16T20:59:24.747Z,88.56
2018-03-16T21:01:52.825Z,88.61
2018-03-16T21:04:21.944Z,88.50
2018-03-16T21:06:50.482Z,87.90
2018-03-16T21:09:19.554Z,87.46
2018-03-16T21:11:47.373Z,87.75
2018-03-16T21:14:15.842Z,88.10
2018-03-16T21:16:43.917Z,88.16
2018-03-16T21:19:12.989Z,88.30
2018-03-16T21:21:41.076Z,88.55
2018-03-16T21:24:08.952Z,89.13
2018-03-16T21:26:36.802Z,88.83
2018-03-16T21:29:05.031Z,88.96
2018-03-16T21:31:34.187Z,89.10
2018-03-16T21:34:02.234Z,88.77
2018-03-16T21:36:30.029Z,88.64
2018-03-16T21:38:58.913Z,88.53
2018-03-16T21:41:26.989Z,88.22
2018-03-16T21:43:54.951Z,87.78
2018-03-16T21:46:22.924Z,87.99
2018-03-16T21:48:51.004Z,88.53
2018-03-16T21:51:19.479Z,88.43
2018-03-16T21:53:47.826Z,88.86
2018-03-16T21:56:15.716Z,89.15
2018-03-16T21:58:43.698Z,89.25
2018-03-16T22:01:11.584Z,89.45
2018-03-16T22:03:40.046Z,89.40
2018-03-16T22:06:09.346Z,89.58
2018-03-16T22:08:37.272Z,89.78
2018-03-16T22:11:05.296Z,89.29
2018-03-16T22:13:33.041Z,88.80
2018-03-16T22:16:00.977Z,89.27
2018-03-16T22:18:28.844Z,88.98
2018-03-16T22:20:56.860Z,89.41
2018-03-16T22:23:25.351Z,89.99
2018-03-16T22:25:53.205Z,90.41
2018-03-16T22:28:21.989Z,89.90
2018-03-16T22:30:50.351Z,89.80
2018-03-16T22:33:18.054Z,89.64
2018-03-16T22:35:46.090Z,89.78
2018-03-16T22:38:14.154Z,90.15
2018-03-16T22:40:42.225Z,90.15
2018-03-16T22:43:10.375Z,90.52
2018-03-16T22:45:38.703Z,90.49
2018-03-16T22:48:06.458Z,90.20
2018-03-16T22:50:34.944Z,89.69
2018-03-16T22:53:02.562Z,90.51
2018-03-16T22:55:30.211Z,90.52
2018-03-16T22:57:57.866Z,90.74
2018-03-16T23:00:25.623Z,90.65
2018-03-16T23:02:53.284Z,89.41
2018-03-16T23:05:20.950Z,88.95
2018-03-16T23:07:48.616Z,88.90
2018-03-16T23:10:16.316Z,88.59
2018-03-16T23:12:43.975Z,88.50
2018-03-16T23:15:11.605Z,88.74
2018-03-16T23:17:39.270Z,89.02
2018-03-16T23:20:06.870Z,89.27
2018-03-16T23:22:34.570Z,89.98
2018-03-16T23:25:02.295Z,90.63
2018-03-16T23:27:29.995Z,90.00
2018-03-16T23:29:57.643Z,89.43
2018-03-16T23:32:25.260Z,89.23
2018-03-16T23:34:52.968Z,89.42
2018-03-16T23:37:20.587Z,89.74
2018-03-16T23:39:48.267Z,90.22
2018-03-16T23:42:15.867Z,90.99
2018-03-16T23:44:43.509Z,90.39
2018-03-16T23:47:11.094Z,90.56
2018-03-16T23:49:39.021Z,90.61
2018-03-16T23:52:06.862Z,90.47
2018-03-16T23:54:34.475Z,90.75
2018-03-16T23:57:02.138Z,91.13
2018-03-16T23:59:29.794Z,90.47
